Time;durP1;ratioP1;P1;durP2;ratioP2;P2;SDS_P1;SDS_P2;PMS_P1;PMS_P2;Temp;Humidity;BMP_temperature;BMP_pressure;BME280_temperature;BME280_humidity;BME280_pressure;Samples;Min_cycle;Max_cycle;Signal;HPM_P1;HPM_P2
2023/05/26 00:00:14;;;;;;;24.03;6.23;;;7.10;99.90;;;;;;4857623;29;20123;-83
2023/05/26 00:02:42;;;;;;;25.23;7.13;;;7.20;99.90;;;;;;4862878;29;20461;-84
2023/05/26 00:05:09;;;;;;;26.00;6.07;;;7.20;99.90;;;;;;4867262;29;20131;-84
2023/05/26 00:07:39;;;;;;;27.27;7.43;;;7.20;99.90;;;;;;4888622;29;20049;-84
2023/05/26 00:10:07;;;;;;;26.37;6.60;;;7.20;99.90;;;;;;4865539;29;20422;-84
2023/05/26 00:12:33;;;;;;;25.67;7.37;;;7.20;99.90;;;;;;4895592;29;20074;-84
2023/05/26 00:14:59;;;;;;;25.67;6.10;;;7.20;99.90;;;;;;4872690;29;20501;-84
2023/05/26 00:17:27;;;;;;;24.43;7.23;;;7.20;99.90;;;;;;4887039;29;20051;-83
2023/05/26 00:19:53;;;;;;;18.93;5.90;;;7.20;99.90;;;;;;4884631;29;20489;-83
2023/05/26 00:22:19;;;;;;;24.57;6.37;;;7.20;99.90;;;;;;4862971;29;20482;-84
2023/05/26 00:24:46;;;;;;;25.03;5.97;;;7.10;99.90;;;;;;4846202;29;20285;-84
2023/05/26 00:27:15;;;;;;;31.33;6.70;;;7.00;99.90;;;;;;4859666;29;20388;-84
2023/05/26 00:29:41;;;;;;;29.60;7.17;;;6.90;99.90;;;;;;4886857;29;20048;-84
2023/05/26 00:32:07;;;;;;;23.80;6.27;;;6.80;99.90;;;;;;4873362;29;20052;-84
2023/05/26 00:34:35;;;;;;;26.07;6.50;;;6.80;99.90;;;;;;4871779;29;20056;-84
2023/05/26 00:37:04;;;;;;;29.37;6.57;;;6.70;99.90;;;;;;4870188;29;20044;-84
2023/05/26 00:39:30;;;;;;;29.90;7.37;;;6.60;99.90;;;;;;4860465;29;20064;-84
2023/05/26 00:41:57;;;;;;;21.00;6.33;;;6.60;99.90;;;;;;4850460;29;20501;-84
2023/05/26 00:44:28;;;;;;;23.50;6.40;;;6.60;99.90;;;;;;4872171;29;20550;-84
2023/05/26 00:46:54;;;;;;;27.70;6.73;;;6.50;99.90;;;;;;4864743;29;20516;-84
2023/05/26 00:49:20;;;;;;;23.43;6.13;;;6.50;99.90;;;;;;4850634;29;20131;-83
2023/05/26 00:51:46;;;;;;;26.70;6.67;;;6.50;99.90;;;;;;4854840;29;20059;-83
2023/05/26 00:54:15;;;;;;;25.37;7.00;;;6.60;99.90;;;;;;4858273;29;20072;-83
2023/05/26 00:56:44;;;;;;;29.80;7.27;;;6.60;99.90;;;;;;4858848;29;20049;-84
2023/05/26 00:59:11;;;;;;;23.30;6.87;;;6.60;99.90;;;;;;4864481;29;20056;-84
2023/05/26 01:01:40;;;;;;;32.13;7.20;;;6.60;99.90;;;;;;4861750;29;20052;-83
2023/05/26 01:04:06;;;;;;;31.27;7.47;;;6.60;99.90;;;;;;4855030;29;20048;-83
2023/05/26 01:06:44;;;;;;;28.93;6.80;;;6.60;99.90;;;;;;4869542;29;20500;-83
2023/05/26 01:09:14;;;;;;;24.77;6.83;;;6.60;99.90;;;;;;4831372;29;20045;-82
2023/05/26 01:11:57;;;;;;;23.63;7.10;;;6.70;99.90;;;;;;4833502;29;20046;-83
2023/05/26 01:14:47;;;;;;;;;;;;;;;;;;;;;
2023/05/26 01:18:07;;;;;;;23.63;6.70;;;6.70;99.90;;;;;;4861814;29;20503;-83
2023/05/26 01:20:48;;;;;;;24.73;7.07;;;6.80;99.90;;;;;;4828572;29;20049;-84
2023/05/26 01:23:34;;;;;;;26.33;7.50;;;6.80;99.90;;;;;;4847278;29;20049;-83
2023/05/26 01:26:12;;;;;;;25.37;6.87;;;6.80;99.90;;;;;;4876141;29;20045;-84
2023/05/26 01:28:44;;;;;;;23.27;7.00;;;6.90;99.90;;;;;;4861255;29;20044;-84
2023/05/26 01:31:12;;;;;;;23.85;7.28;;;6.90;99.90;;;;;;4840503;29;20045;-84
2023/05/26 01:33:38;;;;;;;25.03;7.30;;;6.90;99.90;;;;;;4868115;29;20052;-84
2023/05/26 01:36:04;;;;;;;27.90;7.20;;;6.90;99.90;;;;;;4837095;29;20099;-84
2023/05/26 01:38:30;;;;;;;24.20;6.83;;;6.90;99.90;;;;;;4864810;29;20497;-84
2023/05/26 01:41:06;;;;;;;20.17;6.30;;;6.90;99.90;;;;;;4856902;29;20088;-80
2023/05/26 01:43:54;;;;;;;26.77;7.20;;;6.80;99.90;;;;;;4858051;29;20052;-80
2023/05/26 01:46:41;;;;;;;23.33;6.30;;;6.70;99.90;;;;;;4829648;29;20059;-80
2023/05/26 01:49:13;;;;;;;25.37;6.47;;;6.50;99.90;;;;;;4891211;29;20135;-80
2023/05/26 01:51:42;;;;;;;23.60;7.28;;;6.40;99.90;;;;;;4882614;29;20059;-80
2023/05/26 01:54:10;;;;;;;20.37;6.13;;;6.30;99.90;;;;;;4872397;29;20053;-80
2023/05/26 01:56:36;;;;;;;26.60;6.40;;;6.30;99.90;;;;;;4887778;29;20044;-80
2023/05/26 01:59:03;;;;;;;34.63;8.27;;;6.40;99.90;;;;;;4889327;29;20408;-80
2023/05/26 02:01:28;;;;;;;23.90;6.93;;;6.40;99.90;;;;;;4892000;29;20055;-80
2023/05/26 02:03:55;;;;;;;19.97;6.73;;;6.40;99.90;;;;;;4869916;29;20052;-80
2023/05/26 02:06:21;;;;;;;21.90;6.83;;;6.40;99.90;;;;;;4876052;29;20485;-80
2023/05/26 02:08:47;;;;;;;24.00;6.80;;;6.40;99.90;;;;;;4885388;29;20172;-80
2023/05/26 02:11:13;;;;;;;25.80;7.07;;;6.40;99.90;;;;;;4874707;29;20041;-80
2023/05/26 02:13:39;;;;;;;30.90;8.30;;;6.30;99.90;;;;;;4893065;29;20077;-80
2023/05/26 02:16:05;;;;;;;21.97;7.33;;;6.30;99.90;;;;;;4867719;29;20052;-80
2023/05/26 02:18:31;;;;;;;31.70;8.07;;;6.30;99.90;;;;;;4887785;29;20134;-80
2023/05/26 02:20:56;;;;;;;21.13;6.90;;;6.20;99.90;;;;;;4865593;29;20049;-80
2023/05/26 02:23:22;;;;;;;28.90;7.20;;;6.30;99.90;;;;;;4864196;29;20460;-80
2023/05/26 02:25:48;;;;;;;23.67;7.50;;;6.30;99.90;;;;;;4871317;29;20048;-80
2023/05/26 02:28:14;;;;;;;26.43;7.33;;;6.30;99.90;;;;;;4866487;29;20481;-80
2023/05/26 02:30:40;;;;;;;24.27;7.13;;;6.30;99.90;;;;;;4867180;29;20033;-80
2023/05/26 02:33:06;;;;;;;18.97;6.20;;;6.40;99.90;;;;;;4892319;29;20043;-80
2023/05/26 02:35:32;;;;;;;27.87;7.60;;;6.40;99.90;;;;;;4889992;29;20037;-80
2023/05/26 02:37:57;;;;;;;24.60;6.90;;;6.40;99.90;;;;;;4882267;29;20080;-81
2023/05/26 02:40:23;;;;;;;20.23;6.13;;;6.40;99.90;;;;;;4885765;29;20484;-81
2023/05/26 02:42:49;;;;;;;21.90;7.43;;;6.40;99.90;;;;;;4885506;29;20040;-80
2023/05/26 02:45:14;;;;;;;26.50;7.27;;;6.30;99.90;;;;;;4873444;29;20124;-80
2023/05/26 02:47:40;;;;;;;27.93;6.83;;;6.30;99.90;;;;;;4894870;29;20797;-80
2023/05/26 02:50:06;;;;;;;17.77;6.63;;;6.20;99.90;;;;;;4871383;29;20056;-80
2023/05/26 02:52:32;;;;;;;25.33;7.57;;;6.10;99.90;;;;;;4877503;29;20492;-81
2023/05/26 02:55:00;;;;;;;26.20;7.73;;;6.00;99.90;;;;;;4866570;29;20051;-80
2023/05/26 02:57:26;;;;;;;21.83;7.10;;;6.00;99.90;;;;;;4890677;29;20078;-80
2023/05/26 02:59:52;;;;;;;27.27;7.27;;;6.00;99.90;;;;;;4866978;29;20048;-83
2023/05/26 03:02:20;;;;;;;27.20;7.20;;;6.10;99.90;;;;;;4854520;29;20131;-83
2023/05/26 03:04:49;;;;;;;26.50;7.72;;;6.10;99.90;;;;;;4878261;29;20511;-83
2023/05/26 03:07:14;;;;;;;25.27;6.47;;;6.10;99.90;;;;;;4852619;29;20036;-83
2023/05/26 03:09:40;;;;;;;29.50;7.80;;;6.20;99.90;;;;;;4848822;29;20045;-84
2023/05/26 03:12:06;;;;;;;27.53;6.70;;;6.10;99.90;;;;;;4863428;29;20049;-84
2023/05/26 03:14:33;;;;;;;16.60;6.20;;;6.10;99.90;;;;;;4881496;29;20056;-84
2023/05/26 03:17:02;;;;;;;29.67;7.03;;;6.00;99.90;;;;;;4858699;29;20057;-83
2023/05/26 03:19:28;;;;;;;27.30;6.57;;;5.90;99.90;;;;;;4857882;29;20135;-83
2023/05/26 03:21:56;;;;;;;22.43;6.77;;;5.80;99.90;;;;;;4862335;29;20111;-83
2023/05/26 03:24:24;;;;;;;26.43;8.87;;;5.70;99.90;;;;;;4851034;29;20041;-83
2023/05/26 03:26:51;;;;;;;28.77;7.80;;;5.60;99.90;;;;;;4847431;29;20100;-84
2023/05/26 03:29:17;;;;;;;22.30;7.30;;;5.70;99.90;;;;;;4874525;29;20128;-83
2023/05/26 03:31:46;;;;;;;28.33;7.43;;;5.80;99.90;;;;;;4856305;29;20047;-82
2023/05/26 03:34:13;;;;;;;31.20;8.37;;;5.80;99.90;;;;;;4867527;29;20052;-82
2023/05/26 03:36:39;;;;;;;30.83;8.97;;;5.90;99.90;;;;;;4867761;29;20080;-82
2023/05/26 03:39:08;;;;;;;30.03;7.97;;;6.00;99.90;;;;;;4877563;29;20079;-83
2023/05/26 03:41:34;;;;;;;27.00;7.20;;;6.00;99.90;;;;;;4849726;29;20120;-83
2023/05/26 03:44:00;;;;;;;32.73;8.27;;;6.00;99.90;;;;;;4837714;29;20128;-84
2023/05/26 03:46:26;;;;;;;28.50;7.70;;;6.10;99.90;;;;;;4848718;29;20605;-84
2023/05/26 03:48:52;;;;;;;23.20;6.60;;;6.10;99.90;;;;;;4868574;29;20056;-84
2023/05/26 03:51:18;;;;;;;23.43;7.40;;;6.10;99.90;;;;;;4872439;29;20052;-84
2023/05/26 03:53:43;;;;;;;29.73;7.83;;;6.10;99.90;;;;;;4857441;29;20181;-84
2023/05/26 03:56:09;;;;;;;31.00;7.90;;;6.20;99.90;;;;;;4861300;29;20080;-85
2023/05/26 03:58:35;;;;;;;27.57;8.07;;;6.30;99.90;;;;;;4867878;29;20500;-84
2023/05/26 04:01:03;;;;;;;28.07;7.97;;;6.30;99.90;;;;;;4875307;29;20048;-80
2023/05/26 04:03:29;;;;;;;31.93;7.30;;;6.40;99.90;;;;;;4891937;29;20505;-80
2023/05/26 04:05:59;;;;;;;26.97;7.17;;;6.30;99.90;;;;;;4872930;29;20378;-80
2023/05/26 04:08:26;;;;;;;32.27;7.47;;;6.30;99.90;;;;;;4859547;29;20424;-80
2023/05/26 04:10:52;;;;;;;27.17;7.80;;;6.30;99.90;;;;;;4850492;29;20041;-80
2023/05/26 04:13:17;;;;;;;23.63;8.07;;;6.40;99.90;;;;;;4852309;29;20512;-81
2023/05/26 04:15:44;;;;;;;26.07;6.90;;;6.40;99.90;;;;;;4873213;29;20045;-80
2023/05/26 04:18:10;;;;;;;23.00;6.73;;;6.40;99.90;;;;;;4862082;29;20056;-80
2023/05/26 04:20:36;;;;;;;26.37;7.73;;;6.50;99.90;;;;;;4878542;29;20045;-83
2023/05/26 04:23:02;;;;;;;23.73;7.30;;;6.50;99.90;;;;;;4852615;29;20053;-84
2023/05/26 04:25:28;;;;;;;25.43;6.73;;;6.50;99.90;;;;;;4859794;29;20045;-82
2023/05/26 04:27:57;;;;;;;29.07;6.80;;;6.50;99.90;;;;;;4853422;29;20032;-82
2023/05/26 04:30:27;;;;;;;28.80;7.50;;;6.50;99.90;;;;;;4857002;29;20048;-81
2023/05/26 04:32:53;;;;;;;23.60;7.23;;;6.60;99.90;;;;;;4853017;29;20120;-82
2023/05/26 04:35:19;;;;;;;25.00;7.33;;;6.60;99.90;;;;;;4857758;29;20136;-82
2023/05/26 04:37:50;;;;;;;27.97;7.17;;;6.70;99.90;;;;;;4849567;29;20092;-82
2023/05/26 04:40:18;;;;;;;26.63;7.13;;;6.90;99.90;;;;;;4853140;29;20121;-81
2023/05/26 04:42:44;;;;;;;30.67;7.63;;;6.90;99.90;;;;;;4874383;29;20464;-82
2023/05/26 04:45:14;;;;;;;24.67;7.13;;;7.00;99.90;;;;;;4870656;29;20128;-82
2023/05/26 04:47:40;;;;;;;25.53;6.70;;;7.10;99.90;;;;;;4870159;29;20079;-82
2023/05/26 04:50:12;;;;;;;26.93;7.27;;;7.20;99.90;;;;;;4879517;29;20047;-82
2023/05/26 04:52:41;;;;;;;28.05;7.53;;;7.30;99.90;;;;;;4839008;29;20557;-82
2023/05/26 04:55:08;;;;;;;27.17;6.70;;;7.40;99.90;;;;;;4858495;29;20052;-82
2023/05/26 04:57:36;;;;;;;35.23;7.93;;;7.40;99.90;;;;;;4859545;29;20135;-82
2023/05/26 05:00:06;;;;;;;28.03;6.73;;;7.50;99.90;;;;;;4859802;29;20059;-82
2023/05/26 05:02:32;;;;;;;25.70;6.63;;;7.60;99.90;;;;;;4856192;29;20076;-82
2023/05/26 05:04:58;;;;;;;29.30;6.97;;;7.70;99.90;;;;;;4845735;29;20045;-83
2023/05/26 05:07:24;;;;;;;28.17;7.87;;;7.80;99.90;;;;;;4849339;29;20051;-81
2023/05/26 05:09:50;;;;;;;29.63;6.27;;;7.80;99.90;;;;;;4862143;29;20070;-81
2023/05/26 05:12:19;;;;;;;26.77;7.10;;;7.90;99.90;;;;;;4864892;29;20037;-80
2023/05/26 05:14:45;;;;;;;27.80;7.00;;;8.00;99.90;;;;;;4851669;29;20056;-82
2023/05/26 05:17:11;;;;;;;23.53;6.73;;;8.10;99.90;;;;;;4862069;29;20047;-82
2023/05/26 05:19:40;;;;;;;25.20;6.77;;;8.20;99.90;;;;;;4854385;29;20048;-81
2023/05/26 05:22:05;;;;;;;26.20;6.83;;;8.30;99.90;;;;;;4859539;29;20044;-82
2023/05/26 05:24:34;;;;;;;29.70;7.20;;;8.40;99.90;;;;;;4848374;29;20041;-82
2023/05/26 05:27:01;;;;;;;31.07;6.77;;;8.50;99.90;;;;;;4846488;29;20563;-81
2023/05/26 05:29:27;;;;;;;31.33;6.67;;;8.60;99.90;;;;;;4877380;29;20532;-81
2023/05/26 05:31:53;;;;;;;30.77;6.83;;;8.70;99.90;;;;;;4873630;29;20135;-81
2023/05/26 05:34:20;;;;;;;30.97;6.70;;;8.70;99.90;;;;;;4852541;29;20048;-81
2023/05/26 05:36:46;;;;;;;32.73;7.03;;;8.80;99.90;;;;;;4853110;29;20111;-84
2023/05/26 05:39:12;;;;;;;28.03;6.50;;;8.90;99.90;;;;;;4876883;29;20052;-83
2023/05/26 05:41:37;;;;;;;22.37;6.77;;;9.00;99.90;;;;;;4853682;29;20068;-84
2023/05/26 05:44:03;;;;;;;26.97;6.60;;;9.20;99.90;;;;;;4867138;29;20049;-82
2023/05/26 05:46:32;;;;;;;26.60;6.67;;;9.20;99.90;;;;;;4872580;29;20381;-82
2023/05/26 05:49:01;;;;;;;25.98;6.85;;;9.30;99.90;;;;;;4863824;29;20053;-82
2023/05/26 05:51:29;;;;;;;26.03;7.03;;;9.40;99.90;;;;;;4867401;29;20605;-83
2023/05/26 05:54:03;;;;;;;30.03;7.47;;;9.50;99.90;;;;;;4858569;29;20041;-83
2023/05/26 05:56:40;;;;;;;23.67;7.13;;;9.60;99.90;;;;;;4892528;29;20048;-82
2023/05/26 05:59:10;;;;;;;22.67;6.17;;;9.80;99.90;;;;;;4877751;29;20040;-85
2023/05/26 06:01:39;;;;;;;25.37;6.37;;;9.90;99.90;;;;;;4850750;29;20494;-87
2023/05/26 06:04:05;;;;;;;26.13;6.03;;;10.00;99.90;;;;;;4867195;29;20040;-82
2023/05/26 06:06:40;;;;;;;35.27;7.10;;;10.10;99.90;;;;;;4861333;29;20701;-83
2023/05/26 06:09:09;;;;;;;27.43;6.57;;;10.20;99.90;;;;;;4892831;29;20485;-82
2023/05/26 06:11:35;;;;;;;23.20;6.40;;;10.40;99.90;;;;;;4871236;29;20044;-83
2023/05/26 06:14:01;;;;;;;28.60;6.40;;;10.40;99.90;;;;;;4879544;29;20048;-83
2023/05/26 06:16:33;;;;;;;32.10;6.87;;;10.50;99.90;;;;;;4856270;29;20069;-83
2023/05/26 06:19:02;;;;;;;25.63;6.50;;;10.60;99.90;;;;;;4874891;29;20051;-84
2023/05/26 06:21:28;;;;;;;26.83;6.30;;;10.70;99.90;;;;;;4874634;29;20393;-83
2023/05/26 06:23:54;;;;;;;22.87;6.30;;;10.70;99.90;;;;;;4895279;29;20448;-84
2023/05/26 06:26:22;;;;;;;26.20;5.87;;;10.70;99.90;;;;;;4880790;29;20152;-82
2023/05/26 06:28:58;;;;;;;27.17;6.50;;;10.70;99.90;;;;;;4874682;29;20045;-83
2023/05/26 06:31:25;;;;;;;24.93;5.63;;;10.80;99.90;;;;;;4878680;29;20561;-83
2023/05/26 06:33:51;;;;;;;24.30;6.00;;;10.90;99.90;;;;;;4894255;29;20498;-85
2023/05/26 06:36:22;;;;;;;27.40;6.67;;;10.90;99.90;;;;;;4865297;29;20048;-86
2023/05/26 06:38:48;;;;;;;27.10;6.30;;;10.90;99.90;;;;;;4867217;29;20147;-81
2023/05/26 06:41:16;;;;;;;23.07;5.77;;;10.80;99.90;;;;;;4865401;29;20509;-84
2023/05/26 06:43:45;;;;;;;28.17;7.13;;;11.00;99.90;;;;;;4869737;29;20131;-84
2023/05/26 06:46:10;;;;;;;26.00;6.27;;;11.20;99.90;;;;;;4875403;29;20040;-83
2023/05/26 06:48:39;;;;;;;25.77;6.47;;;11.20;99.90;;;;;;4892016;29;20526;-83
2023/05/26 06:51:08;;;;;;;19.83;5.53;;;11.30;99.90;;;;;;4889335;29;20045;-83
2023/05/26 06:53:34;;;;;;;23.37;6.53;;;11.40;99.90;;;;;;4866730;29;20048;-85
2023/05/26 06:56:08;;;;;;;21.87;5.17;;;11.30;99.90;;;;;;4880635;29;20115;-81
2023/05/26 06:58:36;;;;;;;19.43;5.37;;;11.40;99.90;;;;;;4871907;29;20049;-83
2023/05/26 07:01:07;;;;;;;18.43;5.57;;;11.40;99.90;;;;;;4850068;29;20618;-83
2023/05/26 07:03:33;;;;;;;23.70;5.87;;;11.60;99.90;;;;;;4863276;29;20481;-81
2023/05/26 07:05:59;;;;;;;22.63;6.13;;;11.70;99.90;;;;;;4857705;29;20037;-84
2023/05/26 07:08:29;;;;;;;19.93;5.33;;;11.80;99.90;;;;;;4869865;29;20540;-81
2023/05/26 07:10:54;;;;;;;24.07;6.00;;;12.00;99.90;;;;;;4877443;29;20100;-81
2023/05/26 07:13:20;;;;;;;21.27;6.20;;;12.00;99.90;;;;;;4884942;29;20489;-82
2023/05/26 07:15:46;;;;;;;19.67;5.83;;;12.10;99.90;;;;;;4878271;29;20077;-80
2023/05/26 07:18:12;;;;;;;22.50;5.50;;;12.10;99.90;;;;;;4876062;29;20052;-84
2023/05/26 07:20:43;;;;;;;20.97;6.00;;;12.20;99.90;;;;;;4894409;29;20048;-82
2023/05/26 07:23:11;;;;;;;23.73;5.40;;;12.30;99.90;;;;;;4862800;29;20052;-84
2023/05/26 07:25:37;;;;;;;21.20;5.77;;;12.40;99.90;;;;;;4863493;29;20123;-83
2023/05/26 07:28:03;;;;;;;16.77;5.17;;;12.40;99.90;;;;;;4878027;29;20045;-83
2023/05/26 07:30:35;;;;;;;17.02;5.03;;;12.50;99.90;;;;;;4883127;29;20139;-81
2023/05/26 07:33:01;;;;;;;17.67;5.40;;;12.60;99.90;;;;;;4865988;29;20040;-84
2023/05/26 07:35:36;;;;;;;21.60;5.33;;;12.50;99.90;;;;;;4857861;29;20389;-83
2023/05/26 07:38:11;;;;;;;20.73;4.87;;;12.50;99.90;;;;;;4846852;29;20068;-82
2023/05/26 07:40:39;;;;;;;16.67;4.73;;;12.50;99.90;;;;;;4854258;29;20081;-80
2023/05/26 07:43:10;;;;;;;20.60;4.93;;;12.50;99.90;;;;;;4870285;29;20104;-79
2023/05/26 07:45:36;;;;;;;21.20;5.00;;;12.40;99.90;;;;;;4853402;29;20055;-82
2023/05/26 07:48:09;;;;;;;17.73;5.30;;;12.50;99.90;;;;;;4858573;29;20053;-85
2023/05/26 07:50:44;;;;;;;22.40;5.53;;;12.60;99.90;;;;;;4820751;29;20045;-81
2023/05/26 07:53:12;;;;;;;18.33;4.78;;;12.70;99.90;;;;;;4840032;29;20097;-82
2023/05/26 07:55:38;;;;;;;13.50;4.50;;;12.90;99.90;;;;;;4843509;29;20101;-82
2023/05/26 07:58:05;;;;;;;19.50;5.63;;;13.00;99.90;;;;;;4835676;29;20046;-79
2023/05/26 08:00:33;;;;;;;17.33;5.10;;;13.10;99.90;;;;;;4829919;29;20060;-82
2023/05/26 08:02:59;;;;;;;18.42;4.63;;;13.20;99.90;;;;;;4845244;29;20652;-82
2023/05/26 08:05:26;;;;;;;16.45;4.70;;;13.20;99.90;;;;;;4846441;29;20056;-82
2023/05/26 08:07:52;;;;;;;25.83;5.70;;;13.20;99.90;;;;;;4833979;29;20049;-84
2023/05/26 08:10:27;;;;;;;16.48;5.28;;;13.10;99.90;;;;;;4833909;29;20056;-80
2023/05/26 08:12:53;;;;;;;20.20;6.22;;;13.20;99.90;;;;;;4854435;29;20045;-82
2023/05/26 08:15:24;;;;;;;18.38;4.80;;;13.30;99.90;;;;;;4824251;29;20049;-82
2023/05/26 08:17:50;;;;;;;13.25;4.50;;;13.40;99.90;;;;;;4840159;29;20045;-82
2023/05/26 08:20:16;;;;;;;14.60;4.90;;;13.50;99.90;;;;;;4836016;29;20048;-84
2023/05/26 08:22:41;;;;;;;20.73;4.60;;;13.60;99.90;;;;;;4839529;29;20056;-82
2023/05/26 08:25:07;;;;;;;16.35;4.65;;;13.70;99.90;;;;;;4839551;29;20072;-83
2023/05/26 08:27:36;;;;;;;17.65;4.72;;;13.80;99.90;;;;;;4845805;29;20048;-81
2023/05/26 08:30:02;;;;;;;16.92;4.80;;;13.90;99.90;;;;;;4817597;29;20049;-81
2023/05/26 08:32:28;;;;;;;17.23;4.50;;;13.90;99.90;;;;;;4818741;29;20048;-86
2023/05/26 08:34:54;;;;;;;23.90;4.57;;;14.00;99.90;;;;;;4851816;29;20050;-84
2023/05/26 08:37:22;;;;;;;14.93;4.38;;;14.00;99.90;;;;;;4840664;29;20100;-86
2023/05/26 08:39:51;;;;;;;12.48;4.07;;;14.10;99.90;;;;;;4842189;29;20062;-86
2023/05/26 08:42:21;;;;;;;15.68;4.35;;;14.30;99.90;;;;;;4832872;29;20046;-80
2023/05/26 08:44:47;;;;;;;18.15;4.60;;;14.30;99.90;;;;;;4861753;29;20387;-85
2023/05/26 08:47:13;;;;;;;16.17;4.50;;;14.30;99.90;;;;;;4834085;29;20060;-85
2023/05/26 08:49:45;;;;;;;21.63;4.10;;;14.40;99.90;;;;;;4888584;29;20524;-80
2023/05/26 08:52:13;;;;;;;16.95;4.57;;;14.50;99.90;;;;;;4874447;29;20040;-85
2023/05/26 08:54:40;;;;;;;14.93;4.07;;;14.60;99.90;;;;;;4866744;29;20048;-81
2023/05/26 08:57:06;;;;;;;11.82;4.30;;;14.70;99.90;;;;;;4884101;29;20060;-85
2023/05/26 08:59:33;;;;;;;16.13;4.40;;;14.80;99.90;;;;;;4855123;29;20052;-83
2023/05/26 09:02:00;;;;;;;15.43;4.28;;;14.70;99.90;;;;;;4877263;29;20055;-82
2023/05/26 09:04:28;;;;;;;18.83;4.95;;;14.60;99.90;;;;;;4856488;29;20038;-83
2023/05/26 09:06:54;;;;;;;14.90;4.03;;;14.60;99.90;;;;;;4876092;29;20625;-82
2023/05/26 09:09:20;;;;;;;14.90;4.35;;;14.70;99.90;;;;;;4852214;29;20120;-82
2023/05/26 09:11:46;;;;;;;19.90;4.30;;;14.80;99.90;;;;;;4874881;29;20033;-80
2023/05/26 09:14:20;;;;;;;14.05;4.40;;;15.00;99.90;;;;;;4875408;29;20397;-82
2023/05/26 09:16:54;;;;;;;13.10;4.13;;;15.10;99.90;;;;;;4851950;29;20044;-83
2023/05/26 09:19:20;;;;;;;12.85;4.15;;;15.10;99.90;;;;;;4881941;29;20420;-85
2023/05/26 09:21:51;;;;;;;14.68;4.05;;;15.00;99.90;;;;;;4850246;29;20092;-82
2023/05/26 09:24:19;;;;;;;13.30;3.58;;;14.90;99.90;;;;;;4854272;29;20067;-82
2023/05/26 09:26:49;;;;;;;13.27;3.67;;;14.90;99.90;;;;;;4869565;29;20053;-82
2023/05/26 09:29:18;;;;;;;12.45;3.92;;;14.90;99.90;;;;;;4862311;29;20052;-79
2023/05/26 09:31:51;;;;;;;11.85;3.80;;;15.00;99.90;;;;;;4861335;29;20052;-82
2023/05/26 09:34:38;;;;;;;10.48;3.58;;;15.00;99.90;;;;;;4891269;29;20433;-83
2023/05/26 09:37:31;;;;;;;12.13;3.72;;;15.10;99.90;;;;;;4831951;29;20150;-84
2023/05/26 09:40:10;;;;;;;10.00;3.75;;;15.30;99.90;;;;;;4865499;29;20059;-85
2023/05/26 09:42:51;;;;;;;16.10;4.50;;;15.40;99.90;;;;;;4867099;29;20462;-83
2023/05/26 09:45:20;;;;;;;12.80;3.95;;;15.60;99.90;;;;;;4861089;29;20100;-82
2023/05/26 09:48:00;;;;;;;14.02;3.92;;;15.70;99.90;;;;;;4872584;29;20053;-83
2023/05/26 09:50:31;;;;;;;12.23;3.60;;;15.70;99.90;;;;;;4866411;29;20047;-85
2023/05/26 09:53:05;;;;;;;12.02;3.83;;;15.80;99.90;;;;;;4886932;29;20815;-81
2023/05/26 09:55:42;;;;;;;13.75;4.20;;;15.80;96.00;;;;;;4882924;29;20048;-81
2023/05/26 09:58:10;;;;;;;13.27;3.60;;;15.60;99.90;;;;;;4870469;29;20056;-81
2023/05/26 10:00:43;;;;;;;14.73;4.65;;;15.50;99.90;;;;;;4878872;29;20131;-81
2023/05/26 10:03:14;;;;;;;17.80;4.07;;;15.40;99.90;;;;;;4861593;29;20052;-81
2023/05/26 10:05:45;;;;;;;19.75;4.65;;;15.50;99.90;;;;;;4864845;29;20053;-81
2023/05/26 10:08:14;;;;;;;15.10;4.43;;;15.60;99.90;;;;;;4875515;29;20037;-84
2023/05/26 10:10:43;;;;;;;10.13;3.83;;;15.70;99.90;;;;;;4893321;29;20730;-82
2023/05/26 10:13:09;;;;;;;11.18;3.83;;;15.90;99.00;;;;;;4865401;29;20037;-85
2023/05/26 10:15:35;;;;;;;11.82;3.78;;;15.90;99.90;;;;;;4883050;29;20049;-84
2023/05/26 10:18:02;;;;;;;14.73;4.00;;;15.90;99.90;;;;;;4878380;29;20485;-83
2023/05/26 10:20:29;;;;;;;13.45;3.83;;;15.80;97.10;;;;;;4864767;29;20404;-85
2023/05/26 10:23:01;;;;;;;10.05;3.75;;;15.70;99.90;;;;;;4870946;29;20052;-81
2023/05/26 10:25:51;;;;;;;12.00;3.80;;;15.60;99.90;;;;;;4881828;29;20048;-85
2023/05/26 10:28:32;;;;;;;14.55;3.75;;;15.80;99.90;;;;;;4886923;29;20501;-83
2023/05/26 10:31:00;;;;;;;11.50;3.72;;;15.70;99.90;;;;;;4846003;29;20046;-85
2023/05/26 10:33:47;;;;;;;14.77;4.03;;;15.60;99.90;;;;;;4887145;29;20115;-85
2023/05/26 10:36:16;;;;;;;9.80;3.85;;;15.80;99.90;;;;;;4874746;29;20052;-82
2023/05/26 10:38:47;;;;;;;18.83;4.63;;;15.90;99.90;;;;;;4866999;29;20108;-82
2023/05/26 10:41:32;;;;;;;14.25;3.80;;;15.90;94.30;;;;;;4890798;29;20041;-84
2023/05/26 10:44:05;;;;;;;11.25;3.78;;;16.10;99.90;;;;;;4855163;29;20641;-82
2023/05/26 10:47:01;;;;;;;16.63;3.78;;;16.10;99.40;;;;;;4861013;29;20447;-81
2023/05/26 10:49:27;;;;;;;15.80;4.25;;;16.00;99.90;;;;;;4877572;29;20053;-82
2023/05/26 10:51:55;;;;;;;10.95;4.22;;;15.90;99.90;;;;;;4840676;29;20049;-81
2023/05/26 10:54:27;;;;;;;13.73;3.83;;;16.00;99.90;;;;;;4883253;29;20041;-82
2023/05/26 10:56:54;;;;;;;13.18;3.85;;;15.80;97.80;;;;;;4892092;29;20051;-86
2023/05/26 10:59:22;;;;;;;13.07;4.20;;;16.00;99.90;;;;;;4861356;29;20116;-82
2023/05/26 11:01:52;;;;;;;11.02;4.25;;;16.10;99.90;;;;;;4854568;29;20088;-82
2023/05/26 11:04:19;;;;;;;11.52;3.53;;;16.00;95.80;;;;;;4892687;29;20806;-83
2023/05/26 11:06:58;;;;;;;15.18;4.60;;;16.10;99.90;;;;;;4882043;29;20497;-83
2023/05/26 11:09:27;;;;;;;13.65;4.13;;;16.30;99.90;;;;;;4868014;29;20489;-82
2023/05/26 11:11:55;;;;;;;18.40;4.60;;;16.20;98.90;;;;;;4897260;29;20488;-83
2023/05/26 11:14:27;;;;;;;14.70;4.28;;;16.40;99.90;;;;;;4897459;29;20491;-84
2023/05/26 11:16:59;;;;;;;17.05;4.43;;;16.30;99.90;;;;;;4896965;29;20092;-84
2023/05/26 11:19:37;;;;;;;12.32;4.50;;;16.20;99.90;;;;;;4881793;29;20132;-81
2023/05/26 11:22:09;;;;;;;13.82;4.60;;;16.10;99.90;;;;;;4868504;29;20048;-83
2023/05/26 11:24:35;;;;;;;12.00;3.90;;;16.20;99.90;;;;;;4890403;29;20057;-81
2023/05/26 11:27:07;;;;;;;17.73;4.15;;;16.00;99.90;;;;;;4890335;29;20564;-85
2023/05/26 11:29:33;;;;;;;16.38;4.40;;;16.10;99.90;;;;;;4866509;29;20048;-83
2023/05/26 11:31:59;;;;;;;17.15;4.53;;;16.20;99.90;;;;;;4868015;29;20133;-84
2023/05/26 11:34:25;;;;;;;16.80;4.40;;;16.30;99.90;;;;;;4859718;29;20509;-85
2023/05/26 11:36:53;;;;;;;14.43;3.75;;;16.40;99.90;;;;;;4842795;29;20045;-83
2023/05/26 11:39:21;;;;;;;12.40;4.15;;;16.50;99.90;;;;;;4881254;29;20843;-82
2023/05/26 11:41:50;;;;;;;13.82;4.05;;;16.40;99.90;;;;;;4881429;29;20048;-81
2023/05/26 11:44:15;;;;;;;13.75;3.83;;;16.30;99.90;;;;;;4881419;29;20044;-85
2023/05/26 11:46:54;;;;;;;13.20;4.13;;;16.30;99.90;;;;;;4856178;29;20393;-82
2023/05/26 11:49:20;;;;;;;13.95;3.85;;;16.40;99.90;;;;;;4891249;29;20064;-82
2023/05/26 11:52:05;;;;;;;12.63;4.53;;;16.50;99.90;;;;;;4879587;29;20129;-81
2023/05/26 11:54:31;;;;;;;16.65;4.90;;;16.40;98.50;;;;;;4892575;29;20076;-83
2023/05/26 11:56:57;;;;;;;11.30;4.30;;;16.40;99.90;;;;;;4872143;29;20310;-85
2023/05/26 11:59:22;;;;;;;17.27;4.28;;;16.60;99.90;;;;;;4878955;29;20489;-82
2023/05/26 12:01:48;;;;;;;12.23;4.22;;;16.60;99.90;;;;;;4865168;29;20457;-86
2023/05/26 12:04:14;;;;;;;15.18;4.57;;;16.60;98.50;;;;;;4880343;29;20055;-83
2023/05/26 12:06:44;;;;;;;13.25;3.83;;;16.50;99.90;;;;;;4868709;29;20136;-82
2023/05/26 12:09:21;;;;;;;15.50;4.68;;;16.40;98.50;;;;;;4896550;29;20051;-81
2023/05/26 12:11:51;;;;;;;14.07;4.50;;;16.40;99.90;;;;;;4882317;29;20076;-80
2023/05/26 12:14:17;;;;;;;13.52;4.50;;;16.40;94.90;;;;;;4868692;29;20080;-84
2023/05/26 12:16:46;;;;;;;12.68;4.38;;;16.30;99.20;;;;;;4877337;29;20080;-82
2023/05/26 12:19:21;;;;;;;14.25;4.70;;;16.30;99.90;;;;;;4896811;29;20044;-84
2023/05/26 12:21:52;;;;;;;14.70;4.47;;;16.30;95.30;;;;;;4896473;29;20496;-83
2023/05/26 12:24:39;;;;;;;14.65;4.82;;;16.40;94.60;;;;;;4880424;29;20040;-84
2023/05/26 12:27:09;;;;;;;15.57;4.63;;;16.30;99.90;;;;;;4895822;29;20378;-82
2023/05/26 12:29:43;;;;;;;12.55;4.78;;;16.30;97.80;;;;;;4812412;29;20097;-83
2023/05/26 12:32:13;;;;;;;15.57;4.00;;;16.50;99.90;;;;;;4841938;29;20041;-85
2023/05/26 12:34:40;;;;;;;17.60;4.57;;;16.50;99.90;;;;;;4871865;29;20076;-81
2023/05/26 12:37:06;;;;;;;18.20;5.07;;;16.60;99.90;;;;;;4867889;29;20124;-84
2023/05/26 12:39:32;;;;;;;14.52;4.35;;;16.60;99.90;;;;;;4880516;29;20595;-86
2023/05/26 12:42:01;;;;;;;15.73;5.10;;;16.50;99.90;;;;;;4870434;29;20105;-84
2023/05/26 12:44:28;;;;;;;14.43;4.65;;;16.40;99.90;;;;;;4861698;29;20049;-82
2023/05/26 12:46:56;;;;;;;14.05;4.25;;;16.20;99.90;;;;;;4877724;29;20124;-81
2023/05/26 12:49:22;;;;;;;12.30;4.55;;;16.30;99.90;;;;;;4858950;29;20057;-83
2023/05/26 12:51:48;;;;;;;15.38;4.18;;;16.20;99.90;;;;;;4888829;29;20056;-84